createdAt,value
2019-04-03T00:01:14.419Z,11.84
2019-04-03T00:03:42.824Z,11.82
2019-04-03T00:06:11.786Z,11.77
2019-04-03T00:08:40.238Z,11.74
2019-04-03T00:11:09.543Z,11.71
2019-04-03T00:13:38.083Z,11.70
2019-04-03T00:16:06.464Z,11.67
2019-04-03T00:18:34.901Z,11.65
2019-04-03T00:21:03.384Z,11.61
2019-04-03T00:23:31.808Z,11.59
2019-04-03T00:26:00.244Z,11.56
2019-04-03T00:28:28.664Z,11.52
2019-04-03T00:30:57.102Z,11.37
2019-04-03T00:33:25.501Z,11.47
2019-04-03T00:35:54.050Z,11.44
2019-04-03T00:38:23.976Z,11.39
2019-04-03T00:40:54.291Z,11.37
2019-04-03T00:43:24.396Z,11.35
2019-04-03T00:45:54.685Z,11.30
2019-04-03T00:48:23.721Z,11.27
2019-04-03T00:50:53.311Z,11.24
2019-04-03T00:53:21.709Z,11.19
2019-04-03T00:55:50.107Z,11.17
2019-04-03T00:58:36.178Z,11.12
2019-04-03T01:01:10.060Z,11.09
2019-04-03T01:03:38.511Z,11.05
2019-04-03T01:06:07.337Z,11.02
2019-04-03T01:08:35.735Z,10.98
2019-04-03T01:11:05.056Z,10.94
2019-04-03T01:13:33.455Z,10.92
2019-04-03T01:16:02.656Z,10.89
2019-04-03T01:18:31.305Z,10.84
2019-04-03T01:21:00.174Z,10.80
2019-04-03T01:23:28.560Z,10.74
2019-04-03T01:25:57.098Z,10.71
2019-04-03T01:28:25.422Z,10.66
2019-04-03T01:30:53.812Z,10.59
2019-04-03T01:33:22.236Z,10.53
2019-04-03T01:35:50.603Z,10.49
2019-04-03T01:38:19.531Z,10.46
2019-04-03T01:40:50.212Z,10.47
2019-04-03T01:43:18.408Z,10.42
2019-04-03T01:45:46.774Z,10.39
2019-04-03T01:48:15.157Z,10.36
2019-04-03T01:50:43.904Z,10.29
2019-04-03T01:53:12.224Z,10.22
2019-04-03T01:55:40.721Z,9.60
2019-04-03T01:58:09.163Z,10.09
2019-04-03T02:00:38.164Z,10.03
2019-04-03T02:03:06.782Z,9.98
2019-04-03T02:05:36.549Z,9.94
2019-04-03T02:08:05.235Z,9.90
2019-04-03T02:10:33.629Z,9.18
2019-04-03T02:13:02.022Z,9.84
2019-04-03T02:15:30.445Z,9.84
2019-04-03T02:17:58.863Z,9.83
2019-04-03T02:20:27.574Z,9.80
2019-04-03T02:22:56.012Z,9.75
2019-04-03T02:25:24.436Z,9.73
2019-04-03T02:27:52.862Z,9.69
2019-04-03T02:30:21.452Z,9.58
2019-04-03T02:32:49.851Z,9.53
2019-04-03T02:35:18.343Z,9.47
2019-04-03T02:37:49.752Z,9.45
2019-04-03T02:40:17.024Z,9.43
2019-04-03T02:42:45.457Z,9.43
2019-04-03T02:45:14.916Z,9.40
2019-04-03T02:47:43.318Z,9.37
2019-04-03T02:50:14.359Z,9.37
2019-04-03T02:52:42.279Z,9.36
2019-04-03T02:55:10.714Z,9.37
2019-04-03T02:57:39.141Z,9.40
2019-04-03T03:00:09.096Z,9.42
2019-04-03T03:02:37.696Z,9.44
2019-04-03T03:05:06.667Z,9.43
2019-04-03T03:07:36.342Z,9.41
2019-04-03T03:10:07.274Z,9.39
2019-04-03T03:12:37.084Z,9.35
2019-04-03T03:15:11.187Z,9.34
2019-04-03T03:17:38.579Z,9.37
2019-04-03T03:20:08.092Z,9.37
2019-04-03T03:22:39.999Z,9.37
2019-04-03T03:25:08.738Z,9.38
2019-04-03T03:27:40.623Z,9.39
2019-04-03T03:30:30.391Z,9.37
2019-04-03T03:32:39.741Z,9.37
2019-04-03T03:35:14.211Z,9.38
2019-04-03T03:37:38.976Z,9.37
2019-04-03T03:40:08.226Z,9.36
2019-04-03T03:42:37.021Z,9.37
2019-04-03T03:45:06.553Z,9.37
2019-04-03T03:47:37.173Z,9.36
2019-04-03T03:50:09.851Z,9.33
2019-04-03T03:52:39.123Z,9.37
2019-04-03T03:55:08.475Z,9.39
2019-04-03T03:57:40.408Z,9.40
2019-04-03T04:00:09.516Z,9.43
2019-04-03T04:02:42.687Z,9.43
2019-04-03T04:05:11.191Z,9.42
2019-04-03T04:07:38.943Z,9.36
2019-04-03T04:10:10.899Z,9.32
2019-04-03T04:12:40.894Z,9.29
2019-04-03T04:15:10.207Z,9.28
2019-04-03T04:17:38.664Z,9.28
2019-04-03T04:20:07.538Z,9.31
2019-04-03T04:22:37.354Z,9.32
2019-04-03T04:25:07.098Z,9.31
2019-04-03T04:27:37.830Z,9.30
2019-04-03T04:30:06.809Z,9.30
2019-04-03T04:32:35.510Z,9.29
2019-04-03T04:35:05.278Z,9.26
2019-04-03T04:37:33.664Z,9.21
2019-04-03T04:40:02.232Z,9.19
2019-04-03T04:42:30.664Z,9.20
2019-04-03T04:44:59.411Z,9.24
2019-04-03T04:47:27.912Z,9.24
2019-04-03T04:49:56.392Z,9.25
2019-04-03T04:52:27.140Z,9.26
2019-04-03T04:54:54.974Z,9.27
2019-04-03T04:57:23.359Z,9.27
2019-04-03T04:59:51.753Z,9.24
2019-04-03T05:02:20.502Z,9.24
2019-04-03T05:04:48.907Z,9.25
2019-04-03T05:07:17.458Z,9.23
2019-04-03T05:09:45.781Z,9.21
2019-04-03T05:12:14.260Z,9.19
2019-04-03T05:14:42.630Z,9.22
2019-04-03T05:17:11.031Z,9.23
2019-04-03T05:19:39.459Z,9.21
2019-04-03T05:22:07.924Z,9.20
2019-04-03T05:24:36.713Z,9.22
2019-04-03T05:27:07.498Z,9.23
2019-04-03T05:29:35.433Z,9.22
2019-04-03T05:32:04.221Z,9.25
2019-04-03T05:34:32.629Z,9.26
2019-04-03T05:37:01.015Z,9.27
2019-04-03T05:39:29.500Z,9.28
2019-04-03T05:41:59.538Z,9.28
2019-04-03T05:44:28.541Z,9.30
2019-04-03T05:46:59.331Z,9.36
2019-04-03T05:49:27.360Z,9.39
2019-04-03T05:51:56.302Z,9.40
2019-04-03T05:54:24.791Z,9.44
2019-04-03T05:56:53.273Z,9.47
2019-04-03T05:59:21.670Z,9.52
2019-04-03T06:01:50.140Z,9.55
2019-04-03T06:04:18.542Z,9.60
2019-04-03T06:06:47.362Z,9.66
2019-04-03T06:09:15.897Z,9.70
2019-04-03T06:11:44.281Z,9.67
2019-04-03T06:14:12.837Z,9.66
2019-04-03T06:16:41.245Z,9.70
2019-04-03T06:19:09.644Z,9.70
2019-04-03T06:21:38.116Z,9.74
2019-04-03T06:24:06.451Z,9.75
2019-04-03T06:26:37.142Z,9.75
2019-04-03T06:29:07.314Z,9.76
2019-04-03T06:31:35.404Z,9.75
2019-04-03T06:34:06.671Z,9.77
2019-04-03T06:36:33.912Z,9.85
2019-04-03T06:39:02.302Z,9.90
2019-04-03T06:41:30.690Z,9.97
2019-04-03T06:43:59.100Z,10.03
2019-04-03T06:46:29.430Z,10.05
2019-04-03T06:48:57.633Z,10.06
2019-04-03T06:51:26.050Z,10.10
2019-04-03T06:53:54.778Z,10.10
2019-04-03T06:56:23.699Z,10.15
2019-04-03T06:58:52.106Z,10.20
2019-04-03T07:01:20.812Z,10.22
2019-04-03T07:03:49.158Z,10.20
2019-04-03T07:06:18.113Z,10.24
2019-04-03T07:08:46.517Z,10.28
2019-04-03T07:11:23.174Z,10.33
2019-04-03T07:13:45.046Z,10.39
2019-04-03T07:16:13.867Z,10.44
2019-04-03T07:18:42.378Z,10.51
2019-04-03T07:21:10.794Z,10.57
2019-04-03T07:23:39.187Z,10.65
2019-04-03T07:26:07.613Z,10.69
2019-04-03T07:28:35.999Z,10.71
2019-04-03T07:31:04.480Z,10.75
2019-04-03T07:33:32.880Z,10.86
2019-04-03T07:36:01.569Z,10.95
2019-04-03T07:38:30.229Z,11.01
2019-04-03T07:40:58.628Z,11.05
2019-04-03T07:43:27.578Z,11.13
2019-04-03T07:45:56.405Z,11.28
2019-04-03T07:48:25.143Z,11.43
2019-04-03T07:50:53.545Z,11.47
2019-04-03T07:53:22.083Z,11.49
2019-04-03T07:55:50.608Z,11.47
2019-04-03T07:58:19.346Z,11.53
2019-04-03T08:00:48.228Z,11.63
2019-04-03T08:03:16.783Z,11.67
2019-04-03T08:05:45.188Z,11.68
2019-04-03T08:08:13.571Z,11.73
2019-04-03T08:10:42.056Z,11.76
2019-04-03T08:13:10.430Z,11.87
2019-04-03T08:15:39.193Z,11.95
2019-04-03T08:18:07.602Z,11.98
2019-04-03T08:20:36.420Z,12.04
2019-04-03T08:23:06.037Z,12.11
2019-04-03T08:25:35.155Z,12.19
2019-04-03T08:28:03.574Z,12.26
2019-04-03T08:30:32.004Z,12.27
2019-04-03T08:33:02.174Z,12.20
2019-04-03T08:35:34.955Z,12.20
2019-04-03T08:38:02.795Z,12.18
2019-04-03T08:40:31.265Z,12.13
2019-04-03T08:43:00.758Z,12.02
2019-04-03T08:45:29.682Z,12.06
2019-04-03T08:47:58.169Z,12.09
2019-04-03T08:50:26.776Z,12.13
2019-04-03T08:52:56.998Z,12.20
2019-04-03T08:55:25.476Z,12.28
2019-04-03T08:57:54.236Z,12.35
2019-04-03T09:00:23.017Z,12.39
2019-04-03T09:02:51.467Z,12.39
2019-04-03T09:05:20.275Z,12.49
2019-04-03T09:07:48.941Z,12.53
2019-04-03T09:10:17.987Z,12.59
2019-04-03T09:12:46.547Z,12.61
2019-04-03T09:15:15.099Z,12.62
2019-04-03T09:17:43.607Z,12.63
2019-04-03T09:20:13.728Z,12.64
2019-04-03T09:22:42.188Z,12.69
2019-04-03T09:25:13.749Z,12.78
2019-04-03T09:27:42.233Z,12.86
2019-04-03T09:30:16.080Z,12.94
2019-04-03T09:32:44.366Z,12.95
2019-04-03T09:35:12.980Z,13.01
2019-04-03T09:37:46.041Z,13.08
2019-04-03T09:40:17.333Z,13.14
2019-04-03T09:42:45.319Z,13.15
2019-04-03T09:45:18.130Z,13.17
2019-04-03T09:47:46.774Z,13.27
2019-04-03T09:50:16.109Z,13.34
2019-04-03T09:52:48.704Z,13.46
2019-04-03T09:55:14.588Z,13.58
2019-04-03T09:57:43.399Z,13.64
2019-04-03T10:00:12.584Z,13.73
2019-04-03T10:02:41.217Z,13.79
2019-04-03T10:05:09.727Z,13.80
2019-04-03T10:07:38.318Z,13.84
2019-04-03T10:10:08.522Z,13.94
2019-04-03T10:12:37.347Z,13.98
2019-04-03T10:15:07.583Z,14.03
2019-04-03T10:17:37.462Z,14.08
2019-04-03T10:20:09.069Z,14.14
2019-04-03T10:22:37.598Z,14.17
2019-04-03T10:25:08.245Z,14.22
2019-04-03T10:27:37.127Z,14.29
2019-04-03T10:30:11.410Z,14.37
2019-04-03T10:32:40.436Z,14.42
2019-04-03T10:35:09.286Z,14.54
2019-04-03T10:37:38.051Z,14.63
2019-04-03T10:40:08.047Z,14.64
2019-04-03T10:42:39.591Z,14.68
2019-04-03T10:45:11.033Z,14.80
2019-04-03T10:47:44.152Z,14.78
2019-04-03T10:50:12.068Z,14.82
2019-04-03T10:52:40.483Z,14.83
2019-04-03T10:55:09.251Z,14.85
2019-04-03T10:57:38.158Z,14.92
2019-04-03T11:00:12.613Z,14.97
2019-04-03T11:02:41.295Z,14.96
2019-04-03T11:05:11.917Z,15.22
2019-04-03T11:07:40.394Z,15.23
2019-04-03T11:10:09.987Z,15.29
2019-04-03T11:12:38.580Z,15.30
2019-04-03T11:15:10.832Z,15.37
2019-04-03T11:17:39.910Z,15.51
2019-04-03T11:20:11.166Z,15.53
2019-04-03T11:22:42.726Z,15.63
2019-04-03T11:25:15.226Z,15.66
2019-04-03T11:27:44.558Z,15.88
2019-04-03T11:30:18.187Z,16.04
2019-04-03T11:32:45.277Z,16.11
2019-04-03T11:35:16.475Z,16.32
2019-04-03T11:37:45.080Z,16.33
2019-04-03T11:40:18.082Z,16.32
2019-04-03T11:42:49.749Z,16.38
2019-04-03T11:45:18.370Z,16.36
2019-04-03T11:47:49.141Z,16.48
2019-04-03T11:50:18.512Z,16.54
2019-04-03T11:52:46.960Z,16.48
2019-04-03T11:55:16.083Z,16.45
2019-04-03T11:57:47.368Z,16.60
2019-04-03T12:00:27.690Z,16.58
2019-04-03T12:02:56.602Z,16.68
2019-04-03T12:05:25.253Z,16.71
2019-04-03T12:07:55.777Z,16.73
2019-04-03T12:10:26.043Z,16.92
2019-04-03T12:12:54.918Z,16.94
2019-04-03T12:15:23.680Z,17.04
2019-04-03T12:17:52.299Z,17.14
2019-04-03T12:20:20.816Z,17.10
2019-04-03T12:22:49.232Z,17.11
2019-04-03T12:25:17.618Z,17.07
2019-04-03T12:27:48.896Z,17.08
2019-04-03T12:30:17.826Z,17.34
2019-04-03T12:32:50.183Z,17.24
2019-04-03T12:35:19.633Z,17.28
2019-04-03T12:37:50.708Z,17.50
2019-04-03T12:40:19.770Z,17.54
2019-04-03T12:42:50.102Z,17.62
2019-04-03T12:45:26.865Z,17.69
2019-04-03T12:47:54.577Z,17.75
2019-04-03T12:50:27.560Z,17.64
2019-04-03T12:52:56.353Z,17.70
2019-04-03T12:55:26.089Z,17.82
2019-04-03T12:57:55.725Z,17.89
2019-04-03T13:00:24.857Z,17.98
2019-04-03T13:02:53.542Z,18.05
2019-04-03T13:05:22.250Z,18.10
2019-04-03T13:07:51.084Z,18.14
2019-04-03T13:10:25.583Z,18.21
2019-04-03T13:12:56.265Z,18.19
2019-04-03T13:15:28.563Z,18.19
2019-04-03T13:17:57.095Z,18.26
2019-04-03T13:20:25.618Z,18.30
2019-04-03T13:22:56.102Z,18.24
2019-04-03T13:25:29.363Z,18.21
2019-04-03T13:27:57.871Z,18.30
2019-04-03T13:30:29.050Z,18.32
2019-04-03T13:33:01.255Z,18.34
2019-04-03T13:35:27.646Z,18.37
2019-04-03T13:37:56.652Z,18.49
2019-04-03T13:40:25.043Z,18.58
2019-04-03T13:42:53.809Z,18.58
2019-04-03T13:45:22.513Z,18.51
2019-04-03T13:47:53.290Z,18.47
2019-04-03T13:50:23.585Z,18.43
2019-04-03T13:52:55.874Z,18.40
2019-04-03T13:55:28.870Z,18.53
2019-04-03T13:57:57.304Z,18.56
2019-04-03T14:00:25.896Z,18.51
2019-04-03T14:02:56.845Z,18.51
2019-04-03T14:05:27.045Z,18.55
2019-04-03T14:07:55.558Z,18.44
2019-04-03T14:10:26.992Z,18.33
2019-04-03T14:12:54.954Z,18.30
2019-04-03T14:15:23.355Z,18.42
2019-04-03T14:17:56.480Z,18.32
2019-04-03T14:20:23.729Z,18.29
2019-04-03T14:22:53.092Z,18.25
2019-04-03T14:25:23.416Z,18.16
2019-04-03T14:27:52.210Z,18.29
2019-04-03T14:30:20.715Z,18.29
2019-04-03T14:32:51.841Z,18.35
2019-04-03T14:35:47.967Z,18.41
2019-04-03T14:37:49.385Z,18.43
2019-04-03T14:40:17.804Z,18.46
2019-04-03T14:42:48.608Z,18.59
2019-04-03T14:45:19.934Z,18.79
2019-04-03T14:47:48.583Z,18.82
2019-04-03T14:50:17.114Z,18.82
2019-04-03T14:52:47.704Z,18.87
2019-04-03T14:55:22.310Z,18.86
2019-04-03T14:57:53.761Z,18.92
2019-04-03T15:00:29.524Z,18.92
2019-04-03T15:02:58.762Z,18.82
2019-04-03T15:05:27.619Z,18.82
2019-04-03T15:07:58.739Z,18.72
2019-04-03T15:10:31.568Z,18.72
2019-04-03T15:13:03.855Z,18.72
2019-04-03T15:15:32.318Z,18.63
2019-04-03T15:18:01.088Z,18.57
2019-04-03T15:20:29.632Z,18.52
2019-04-03T15:22:58.116Z,18.51
2019-04-03T15:25:26.636Z,18.51
2019-04-03T15:27:58.654Z,18.53
2019-04-03T15:30:25.998Z,18.55
2019-04-03T15:32:54.380Z,18.55
2019-04-03T15:35:23.092Z,18.67
2019-04-03T15:37:51.532Z,18.70
2019-04-03T15:40:19.948Z,18.72
2019-04-03T15:42:48.342Z,18.78
2019-04-03T15:45:17.088Z,18.77
2019-04-03T15:47:47.285Z,18.70
2019-04-03T15:50:16.631Z,18.74
2019-04-03T15:52:48.285Z,18.65
2019-04-03T15:55:15.525Z,18.73
2019-04-03T15:57:43.923Z,18.68
2019-04-03T16:00:14.924Z,18.70
2019-04-03T16:02:45.732Z,18.67
2019-04-03T16:05:14.074Z,18.67
2019-04-03T16:07:42.784Z,18.61
2019-04-03T16:10:11.791Z,18.56
2019-04-03T16:12:42.760Z,18.49
2019-04-03T16:15:10.631Z,18.43
2019-04-03T16:17:39.680Z,18.39
2019-04-03T16:20:09.075Z,18.38
2019-04-03T16:22:38.079Z,18.28
2019-04-03T16:25:08.044Z,18.31
2019-04-03T16:27:36.665Z,18.28
2019-04-03T16:30:09.674Z,18.20
2019-04-03T16:32:38.952Z,18.11
2019-04-03T16:35:08.153Z,18.00
2019-04-03T16:37:37.219Z,17.96
2019-04-03T16:40:07.289Z,17.90
2019-04-03T16:42:35.689Z,17.83
2019-04-03T16:45:08.535Z,17.77
2019-04-03T16:47:36.831Z,17.71
2019-04-03T16:50:07.841Z,17.62
2019-04-03T16:52:37.571Z,17.55
2019-04-03T16:55:07.909Z,17.48
2019-04-03T16:57:37.064Z,17.46
2019-04-03T17:00:10.309Z,17.44
2019-04-03T17:02:38.848Z,17.41
2019-04-03T17:05:10.208Z,17.41
2019-04-03T17:07:38.497Z,17.35
2019-04-03T17:10:09.462Z,17.29
2019-04-03T17:12:37.774Z,17.22
2019-04-03T17:15:10.019Z,17.16
2019-04-03T17:17:39.015Z,17.12
2019-04-03T17:20:08.280Z,17.06
2019-04-03T17:22:39.423Z,17.02
2019-04-03T17:25:07.957Z,16.97
2019-04-03T17:27:36.458Z,16.95
2019-04-03T17:30:07.263Z,16.89
2019-04-03T17:32:35.669Z,16.82
2019-04-03T17:35:07.002Z,16.79
2019-04-03T17:37:35.541Z,16.74
2019-04-03T17:40:06.499Z,16.69
2019-04-03T17:42:35.215Z,16.63
2019-04-03T17:45:04.775Z,16.57
2019-04-03T17:47:33.196Z,16.52
2019-04-03T17:50:01.606Z,16.44
2019-04-03T17:52:30.083Z,16.38
2019-04-03T17:54:58.473Z,16.33
2019-04-03T17:57:26.865Z,16.27
2019-04-03T17:59:55.258Z,16.22
2019-04-03T18:02:24.591Z,16.18
2019-04-03T18:04:53.522Z,16.12
2019-04-03T18:07:22.001Z,16.06
2019-04-03T18:09:50.331Z,16.01
2019-04-03T18:12:21.689Z,15.98
2019-04-03T18:14:48.930Z,15.93
2019-04-03T18:17:19.272Z,15.88
2019-04-03T18:19:47.465Z,15.84
2019-04-03T18:22:15.858Z,15.78
2019-04-03T18:24:44.263Z,15.70
2019-04-03T18:27:12.653Z,15.65
2019-04-03T18:29:41.119Z,15.60
2019-04-03T18:32:09.508Z,15.54
2019-04-03T18:34:38.038Z,15.49
2019-04-03T18:37:07.541Z,15.46
2019-04-03T18:39:35.977Z,15.42
2019-04-03T18:42:04.378Z,15.35
2019-04-03T18:44:32.771Z,15.28
2019-04-03T18:47:01.193Z,15.23
2019-04-03T18:49:30.580Z,15.18
2019-04-03T18:51:59.703Z,15.14
2019-04-03T18:54:29.013Z,15.11
2019-04-03T18:56:57.404Z,15.07
2019-04-03T18:59:26.401Z,15.02
2019-04-03T19:01:54.899Z,14.98
2019-04-03T19:04:23.288Z,14.96
2019-04-03T19:06:51.684Z,14.93
2019-04-03T19:09:21.260Z,14.91
2019-04-03T19:11:51.413Z,14.86
2019-04-03T19:14:26.977Z,14.81
2019-04-03T19:16:52.523Z,14.78
2019-04-03T19:19:22.982Z,14.74
2019-04-03T19:21:50.452Z,14.72
2019-04-03T19:24:18.843Z,14.65
2019-04-03T19:26:47.244Z,14.62
2019-04-03T19:29:15.650Z,14.60
2019-04-03T19:31:44.042Z,14.57
2019-04-03T19:34:12.462Z,14.55
2019-04-03T19:36:43.048Z,14.52
2019-04-03T19:39:11.027Z,14.48
2019-04-03T19:41:40.974Z,14.43
2019-04-03T19:44:09.523Z,14.40
2019-04-03T19:46:37.944Z,14.37
2019-04-03T19:49:06.338Z,14.33
2019-04-03T19:51:35.640Z,14.27
2019-04-03T19:54:05.021Z,14.22
2019-04-03T19:56:33.407Z,14.17
2019-04-03T19:59:04.658Z,14.08
2019-04-03T20:01:31.936Z,14.03
2019-04-03T20:04:00.339Z,13.94
2019-04-03T20:06:28.741Z,13.94
2019-04-03T20:08:57.138Z,13.90
2019-04-03T20:11:25.559Z,13.88
2019-04-03T20:13:53.962Z,13.85
2019-04-03T20:16:24.278Z,13.81
2019-04-03T20:18:52.493Z,13.76
2019-04-03T20:21:20.881Z,13.67
2019-04-03T20:23:49.309Z,13.62
2019-04-03T20:26:17.713Z,13.56
2019-04-03T20:28:46.119Z,13.53
2019-04-03T20:31:14.583Z,13.51
2019-04-03T20:33:43.000Z,13.48
2019-04-03T20:36:11.378Z,13.44
2019-04-03T20:38:39.855Z,13.37
2019-04-03T20:41:08.327Z,13.28
2019-04-03T20:43:36.723Z,13.22
2019-04-03T20:46:05.266Z,13.19
2019-04-03T20:48:33.662Z,13.14
2019-04-03T20:51:02.070Z,13.09
2019-04-03T20:53:30.475Z,13.04
2019-04-03T20:55:58.885Z,12.99
2019-04-03T20:58:33.048Z,12.97
2019-04-03T21:01:06.847Z,12.62
2019-04-03T21:03:31.579Z,12.89
2019-04-03T21:06:00.811Z,12.82
2019-04-03T21:08:31.477Z,12.75
2019-04-03T21:11:02.031Z,12.70
2019-04-03T21:13:29.439Z,12.64
2019-04-03T21:15:57.839Z,12.59
2019-04-03T21:18:26.239Z,12.48
2019-04-03T21:20:55.268Z,12.36
2019-04-03T21:23:23.668Z,12.28
2019-04-03T21:25:52.220Z,12.16
2019-04-03T21:28:20.620Z,12.03
2019-04-03T21:30:49.031Z,11.87
2019-04-03T21:33:17.584Z,11.70
2019-04-03T21:35:45.989Z,11.56
2019-04-03T21:38:14.422Z,11.34
2019-04-03T21:40:42.807Z,11.10
2019-04-03T21:43:11.212Z,10.91
2019-04-03T21:45:39.614Z,10.76
2019-04-03T21:48:08.005Z,10.64
2019-04-03T21:50:36.401Z,10.45
2019-04-03T21:53:04.791Z,10.37
2019-04-03T21:55:34.745Z,10.27
2019-04-03T21:58:03.265Z,10.19
2019-04-03T22:00:52.311Z,10.09
2019-04-03T22:03:20.744Z,10.01
2019-04-03T22:05:49.127Z,9.84
2019-04-03T22:08:17.515Z,9.70
2019-04-03T22:10:45.907Z,9.56
2019-04-03T22:13:14.285Z,9.55
2019-04-03T22:15:45.267Z,9.51
2019-04-03T22:18:12.788Z,9.54
2019-04-03T22:20:41.172Z,9.49
2019-04-03T22:23:09.575Z,9.31
2019-04-03T22:25:39.463Z,9.20
2019-04-03T22:28:08.280Z,9.21
2019-04-03T22:30:36.661Z,9.14
2019-04-03T22:33:05.076Z,9.15
2019-04-03T22:35:33.460Z,9.11
2019-04-03T22:38:01.854Z,9.14
2019-04-03T22:40:30.231Z,9.09
2019-04-03T22:42:58.608Z,8.96
2019-04-03T22:45:26.992Z,8.81
2019-04-03T22:47:56.339Z,8.78
2019-04-03T22:50:25.146Z,8.77
2019-04-03T22:52:53.516Z,8.73
2019-04-03T22:55:21.907Z,8.70
2019-04-03T22:57:51.121Z,8.72
2019-04-03T23:00:19.622Z,8.68
2019-04-03T23:02:57.775Z,8.62
2019-04-03T23:05:26.150Z,8.51
2019-04-03T23:07:54.544Z,8.39
2019-04-03T23:10:22.935Z,8.34
2019-04-03T23:12:51.469Z,8.29
2019-04-03T23:15:19.967Z,8.23
2019-04-03T23:17:48.476Z,8.24
2019-04-03T23:20:16.845Z,8.18
2019-04-03T23:22:45.227Z,8.09
2019-04-03T23:25:13.617Z,8.06
2019-04-03T23:27:41.998Z,8.00
2019-04-03T23:30:11.124Z,7.95
2019-04-03T23:32:39.639Z,7.87
2019-04-03T23:35:08.299Z,7.79
2019-04-03T23:37:36.703Z,7.73
2019-04-03T23:40:06.136Z,7.64
2019-04-03T23:42:35.925Z,7.55
2019-04-03T23:45:06.903Z,7.59
2019-04-03T23:47:35.278Z,7.60
2019-04-03T23:50:06.108Z,7.50
2019-04-03T23:52:34.488Z,7.49
2019-04-03T23:55:04.758Z,7.49
2019-04-03T23:57:33.046Z,7.42
